1IL2 weather

CLOSED Hobby Hideaway RLA Airport
Delavan, Illinois, United States

Public forecast

Using degrees Fahrenheit for public forecast. Weather courtesy of forecast.io.

METAR (pilot weather report)

Closest report is Logan County Airport, 12.9 nm (23.9 km) SSE. Retrieved 2019/06/16 00:35 UTC (0 seconds ago):

KAAA 160035Z AUTO 00000KT 10SM SCT036 25/22 A2976 RMK AO2 T02500215

TAF (pilot weather forecast)

Forecast is more than 12 hours old.

Closest forecast is General Wayne A. Downing Peoria International Airport, 21.6 nm (40.0 km) NNW. Retrieved 2019/06/15 00:24 UTC (24 hours ago):

TAF KPIA 152321Z 1600/1624 22007KT P6SM SCT020 FM160400 VRB04KT 5SM SHRA BR VCTS BKN025CB TEMPO 1604/1606 2SM -TSRA BKN012 OVC025CB FM161000 15003KT 4SM BR VCSH OVC006 FM161700 30005KT P6SM BKN018 FM162100 01004KT P6SM VCSH SCT025 BKN250